CYQQCYXX

Guest
Details From CYQQ - Comox
To CYXX - Abbotsford
Flight Number -
Tags Generated
Created
Modified
Stats Distance 107 nm / 198 km
Max Altitude 0 ft / 0 m
Waypoints 2
Social Downloads 3
Likes 0
Share VATSIM

Download

Looking for another format? Having issues loading an existing format? Contact us
Advertisement - Login to hide

Notes

Generated

Route

CYQQ CYXX

ID Type Via Altitude Latitude Longitude Leg Dist Tot Dist Heading (true) Name
O CYQQ APT - 0 ft / 0 m 49.72035˚ -124.89255˚ - 0 nm - -
O CYXX APT - 0 ft / 0 m 49.02609˚ -122.37409˚ 106 nm 106 nm 112° / 114° -

Altitude Profile

Advertisement - Login to hide

CYQQ

Details ICAO CYQQ (YQQ)
Name Comox
Region Canada
Timezone America/Vancouver (UTC-7.0)
Stats Elevation 83 ft / 25 m (AMSL)
Location 49.712596° -124.891603°
Runways 2
Magnetic Variation 16.583° E

METAR

CYQQ 272100Z 13014KT 20SM FEW045 FEW100 FEW250 20/11 A3019 RMK CU2AC1CI1 SLP222

Decode

TAF

TAF CYQQ 271739Z 2718/2818 13012KT P6SM FEW040 FEW080 BECMG 2802/2804 20006KT FM280900 26006KT P6SM BKN050 BECMG 2814/2816 33012KT RMK NXT FCST BY 280000Z

Decode

Departure Runways

ID Width Length Bearing (true) Bearing (mag) Surface Threshold Offset Overrun Length
12 200 ft / 61 m 10,000 ft / 3,048 m 135.04° 118.46° Concrete 0 ft / 0 m 0 ft / 0 m
18 200 ft / 61 m 4,916 ft / 1,498 m 202.92° 186.34° Asphalt 0 ft / 0 m 0 ft / 0 m
30 200 ft / 61 m 10,000 ft / 3,048 m 315.06° 298.48° Concrete 0 ft / 0 m 0 ft / 0 m
36 200 ft / 61 m 4,916 ft / 1,498 m 22.91° 6.33° Asphalt 0 ft / 0 m 0 ft / 0 m

CYXX

Details ICAO CYXX (YXX)
Name Abbotsford
Region Canada
Timezone America/Vancouver (UTC-7.0)
Stats Elevation 189 ft / 58 m (AMSL)
Location 49.024424° -122.368913°
Runways 3
Magnetic Variation 16.009° E

METAR

CYXX 272100Z 22005KT 200V270 30SM FEW070 FEW250 21/06 A3020 RMK CU1CI1 CU TR SLP228 DENSITY ALT 600FT

Decode

TAF

TAF CYXX 271739Z 2718/2818 VRB03KT P6SM FEW040 FEW070 BECMG 2718/2720 22008KT FM272100 22010KT P6SM SKC BECMG 2804/2806 18005KT FM281300 19005KT P6SM BKN040 RMK NXT FCST BY 280000Z

Decode

Destination Runways

ID Width Length Bearing (true) Bearing (mag) Surface Threshold Offset Overrun Length
01 200 ft / 61 m 5,263 ft / 1,604 m 25.71° 9.70° Asphalt 249 ft / 76 m 0 ft / 0 m
01L 95 ft / 29 m 1,480 ft / 451 m 25.01° 9.00° Grass 0 ft / 0 m 0 ft / 0 m
07 200 ft / 61 m 9,576 ft / 2,919 m 85.76° 69.75° Asphalt 0 ft / 0 m 0 ft / 0 m
19 200 ft / 61 m 5,263 ft / 1,604 m 205.72° 189.71° Asphalt 0 ft / 0 m 0 ft / 0 m
19R 95 ft / 29 m 1,480 ft / 451 m 205.01° 189.00° Grass 0 ft / 0 m 0 ft / 0 m
25 200 ft / 61 m 9,576 ft / 2,919 m 265.79° 249.78° Asphalt 430 ft / 131 m 0 ft / 0 m

Approach Navaids

Runway Type Ident Frequency Range Bearing (true) Bearing (mag) Slope Elevation
07 Localiser IXX 109.70 MHz 18 nm / 33 km 85.78° 69.77° - 187 ft / 57 m (AMSL)
07 Glidescope IXX 109.70 MHz 10 nm / 19 km 85.78° 69.77° 3.00° 170 ft / 52 m (AMSL)

Popular Alternatives